createdAt,value
2019-04-04T00:01:29.139Z,9.90
2019-04-04T00:06:32.673Z,8.50
2019-04-04T00:11:36.908Z,8.40
2019-04-04T00:16:40.632Z,9.17
2019-04-04T00:21:43.927Z,9.53
2019-04-04T00:26:47.471Z,9.80
2019-04-04T00:31:50.976Z,9.47
2019-04-04T00:36:54.496Z,9.53
2019-04-04T00:41:58.036Z,9.27
2019-04-04T00:47:02.231Z,9.60
2019-04-04T00:52:05.857Z,10.33
2019-04-04T00:57:09.150Z,9.30
2019-04-04T01:02:12.496Z,9.50
2019-04-04T01:07:16.040Z,12.00
2019-04-04T01:12:21.437Z,10.13
2019-04-04T01:17:24.588Z,10.80
2019-04-04T01:22:27.897Z,10.93
2019-04-04T01:27:31.431Z,11.70
2019-04-04T01:32:34.889Z,10.60
2019-04-04T01:37:38.152Z,9.90
2019-04-04T01:42:41.455Z,10.23
2019-04-04T01:47:47.668Z,11.17
2019-04-04T01:52:50.112Z,11.57
2019-04-04T01:57:53.477Z,10.57
2019-04-04T02:02:57.397Z,10.27
2019-04-04T02:08:01.452Z,10.87
2019-04-04T02:13:05.211Z,11.83
2019-04-04T02:18:08.485Z,10.20
2019-04-04T02:23:11.934Z,11.77
2019-04-04T02:28:15.465Z,10.87
2019-04-04T02:33:19.066Z,11.90
2019-04-04T02:38:27.042Z,13.47
2019-04-04T02:43:28.610Z,12.03
2019-04-04T02:48:32.379Z,10.97
2019-04-04T02:53:35.912Z,12.47
2019-04-04T02:58:39.434Z,12.13
2019-04-04T03:03:42.791Z,12.90
2019-04-04T03:08:46.391Z,12.57
2019-04-04T03:13:49.685Z,12.63
2019-04-04T03:18:53.216Z,12.57
2019-04-04T03:23:56.839Z,12.40
2019-04-04T03:29:04.289Z,13.37
2019-04-04T03:34:10.944Z,12.50
2019-04-04T03:39:11.211Z,13.33
2019-04-04T03:44:14.852Z,12.37
2019-04-04T03:49:23.409Z,13.83
2019-04-04T03:54:24.970Z,11.53
2019-04-04T03:59:29.632Z,13.53
2019-04-04T04:04:35.081Z,13.77
2019-04-04T04:09:39.049Z,12.03
2019-04-04T04:14:42.410Z,13.73
2019-04-04T04:19:45.943Z,14.20
2019-04-04T04:24:49.231Z,14.13
2019-04-04T04:29:52.512Z,14.10
2019-04-04T04:34:56.068Z,13.97
2019-04-04T04:39:59.339Z,14.50
2019-04-04T04:45:02.626Z,12.80
2019-04-04T04:50:09.500Z,13.53
2019-04-04T04:55:12.623Z,13.50
2019-04-04T05:00:16.908Z,13.97
2019-04-04T05:05:20.231Z,12.07
2019-04-04T05:10:23.463Z,14.17
2019-04-04T05:15:26.746Z,16.07
2019-04-04T05:20:30.301Z,15.97
2019-04-04T05:25:33.852Z,13.93
2019-04-04T05:30:37.381Z,20.03
2019-04-04T05:35:42.421Z,17.63
2019-04-04T05:40:45.719Z,18.67
2019-04-04T05:45:49.018Z,15.80
2019-04-04T05:50:52.544Z,16.00
2019-04-04T05:55:56.105Z,14.97
2019-04-04T06:01:01.828Z,15.17
2019-04-04T06:06:05.038Z,14.37
2019-04-04T06:11:08.334Z,15.17
2019-04-04T06:16:11.651Z,15.83
2019-04-04T06:21:14.955Z,16.60
2019-04-04T06:26:18.271Z,13.03
2019-04-04T06:31:21.585Z,15.60
2019-04-04T06:36:25.138Z,16.17
2019-04-04T06:41:28.523Z,15.37
2019-04-04T06:46:32.039Z,16.47
2019-04-04T06:51:35.352Z,17.53
2019-04-04T06:56:38.848Z,14.03
2019-04-04T07:01:42.151Z,15.77
2019-04-04T07:06:45.656Z,14.33
2019-04-04T07:11:49.215Z,13.80
2019-04-04T07:16:52.601Z,15.60
2019-04-04T07:21:56.119Z,16.47
2019-04-04T07:26:59.652Z,16.03
2019-04-04T07:32:02.938Z,19.40
2019-04-04T07:37:06.216Z,16.67
2019-04-04T07:42:09.527Z,16.77
2019-04-04T07:47:15.782Z,16.20
2019-04-04T07:52:18.644Z,17.00
2019-04-04T07:57:21.913Z,16.90
2019-04-04T08:02:25.199Z,16.23
2019-04-04T08:07:28.492Z,15.87
2019-04-04T08:12:31.801Z,17.60
2019-04-04T08:17:35.081Z,17.83
2019-04-04T08:22:39.817Z,18.93
2019-04-04T08:27:43.392Z,16.50
2019-04-04T08:32:46.868Z,15.47
2019-04-04T08:37:50.157Z,15.37
2019-04-04T08:42:53.440Z,17.20
2019-04-04T08:47:56.965Z,17.87
2019-04-04T08:53:00.243Z,18.33
2019-04-04T08:58:03.548Z,18.60
2019-04-04T09:03:07.133Z,15.37
2019-04-04T09:08:10.361Z,16.97
2019-04-04T09:13:13.649Z,18.70
2019-04-04T09:18:17.246Z,15.90
2019-04-04T09:23:20.530Z,17.60
2019-04-04T09:28:23.887Z,20.00
2019-04-04T09:33:27.421Z,17.93
2019-04-04T09:38:30.699Z,21.53
2019-04-04T09:43:34.054Z,19.93
2019-04-04T09:48:37.573Z,16.37
2019-04-04T09:53:52.932Z,16.30
2019-04-04T09:58:46.108Z,15.30
2019-04-04T10:03:49.647Z,16.23
2019-04-04T10:08:53.654Z,17.73
2019-04-04T10:13:56.941Z,19.50
2019-04-04T10:19:00.213Z,16.80
2019-04-04T10:24:04.231Z,17.00
2019-04-04T10:29:07.770Z,19.47
2019-04-04T10:34:11.314Z,20.53
2019-04-04T10:39:28.065Z,15.93
2019-04-04T10:44:20.206Z,13.87
2019-04-04T10:49:23.494Z,15.43
2019-04-04T10:54:26.777Z,11.60
2019-04-04T10:59:30.047Z,13.67
2019-04-04T11:04:33.329Z,13.10
2019-04-04T11:09:42.132Z,12.00
2019-04-04T11:14:42.406Z,12.07
2019-04-04T11:19:45.934Z,11.57
2019-04-04T11:24:49.591Z,9.90
2019-04-04T11:29:53.101Z,13.63
2019-04-04T11:34:56.377Z,10.50
2019-04-04T11:39:59.910Z,11.63
2019-04-04T11:45:03.182Z,9.60
2019-04-04T11:50:07.914Z,10.80
2019-04-04T11:55:11.694Z,15.63
2019-04-04T12:00:16.685Z,10.63
2019-04-04T12:05:20.212Z,12.77
2019-04-04T12:10:24.107Z,12.07
2019-04-04T12:15:27.393Z,11.30
2019-04-04T12:20:32.475Z,16.03
2019-04-04T12:25:36.029Z,13.10
2019-04-04T12:30:39.562Z,8.07
2019-04-04T12:35:43.078Z,7.13
2019-04-04T12:40:46.600Z,8.57
2019-04-04T12:45:50.147Z,6.97
2019-04-04T12:50:53.447Z,6.40
2019-04-04T12:55:56.713Z,6.40
2019-04-04T13:01:00.220Z,7.23
2019-04-04T13:06:03.735Z,7.97
2019-04-04T13:11:07.346Z,5.37
2019-04-04T13:16:11.359Z,4.97
2019-04-04T13:21:14.913Z,3.60
2019-04-04T13:26:18.263Z,4.07
2019-04-04T13:31:21.792Z,4.20
2019-04-04T13:36:25.074Z,3.83
2019-04-04T13:41:29.149Z,3.50
2019-04-04T13:46:32.501Z,4.23
2019-04-04T13:51:36.594Z,3.87
2019-04-04T13:56:39.891Z,3.83
2019-04-04T14:01:43.436Z,3.93
2019-04-04T14:06:46.733Z,3.20
2019-04-04T14:11:50.014Z,3.37
2019-04-04T14:16:53.551Z,4.30
2019-04-04T14:21:57.081Z,5.03
2019-04-04T14:27:00.681Z,6.13
2019-04-04T14:32:04.220Z,4.37
2019-04-04T14:37:07.749Z,3.90
2019-04-04T14:42:11.028Z,4.57
2019-04-04T14:47:16.256Z,3.57
2019-04-04T14:52:20.689Z,3.67
2019-04-04T14:57:24.061Z,3.67
2019-04-04T15:02:27.347Z,4.20
2019-04-04T15:12:51.586Z,3.67
2019-04-04T15:17:54.879Z,3.27
2019-04-04T15:28:09.068Z,3.37
2019-04-04T15:33:12.596Z,3.10
2019-04-04T15:38:16.197Z,2.70
2019-04-04T15:43:19.550Z,3.40
2019-04-04T15:48:22.826Z,2.83
2019-04-04T15:53:26.381Z,5.07
2019-04-04T15:58:29.918Z,3.63
2019-04-04T16:03:33.272Z,3.53
2019-04-04T16:08:36.797Z,4.03
2019-04-04T16:13:40.917Z,2.50
2019-04-04T16:18:44.443Z,3.23
2019-04-04T16:23:47.969Z,2.97
2019-04-04T16:28:51.285Z,1.80
2019-04-04T16:33:54.572Z,2.60
2019-04-04T16:38:57.877Z,4.37
2019-04-04T16:44:01.404Z,2.87
2019-04-04T16:49:05.036Z,3.53
2019-04-04T16:54:08.382Z,2.97
2019-04-04T16:59:11.677Z,3.33
2019-04-04T17:04:14.944Z,2.50
2019-04-04T17:09:18.250Z,3.87
2019-04-04T17:14:21.793Z,3.27
2019-04-04T17:19:25.188Z,4.33
2019-04-04T17:24:28.741Z,4.10
2019-04-04T17:29:32.252Z,5.03
2019-04-04T17:34:35.788Z,3.10
2019-04-04T17:39:39.114Z,3.13
2019-04-04T17:44:42.422Z,4.27
2019-04-04T17:49:45.958Z,4.33
2019-04-04T17:54:49.980Z,4.07
2019-04-04T17:59:53.334Z,3.63
2019-04-04T18:04:56.639Z,4.90
2019-04-04T18:09:59.904Z,3.37
2019-04-04T18:15:03.648Z,5.37
2019-04-04T18:20:08.272Z,4.67
2019-04-04T18:25:11.620Z,3.77
2019-04-04T18:30:15.340Z,3.33
2019-04-04T18:35:18.652Z,4.17
2019-04-04T18:40:22.160Z,6.47
2019-04-04T18:45:25.440Z,6.93
2019-04-04T18:50:28.722Z,5.13
2019-04-04T18:55:31.993Z,4.93
2019-04-04T19:00:35.604Z,4.83
2019-04-04T19:05:39.342Z,5.33
2019-04-04T19:10:42.659Z,4.77
2019-04-04T19:15:45.935Z,6.40
2019-04-04T19:20:49.213Z,7.00
2019-04-04T19:25:52.478Z,8.13
2019-04-04T19:30:58.462Z,7.73
2019-04-04T19:36:00.953Z,9.53
2019-04-04T19:41:04.402Z,8.57
2019-04-04T19:46:07.677Z,9.33
2019-04-04T19:51:10.954Z,8.47
2019-04-04T19:56:14.247Z,7.67
2019-04-04T20:01:17.516Z,9.03
2019-04-04T20:06:21.044Z,7.93
2019-04-04T20:11:24.562Z,8.13
2019-04-04T20:16:28.079Z,6.73
2019-04-04T20:21:31.631Z,7.10
2019-04-04T20:26:35.160Z,8.67
2019-04-04T20:31:38.460Z,7.70
2019-04-04T20:36:41.762Z,7.83
2019-04-04T20:41:45.265Z,7.47
2019-04-04T20:46:48.538Z,7.23
2019-04-04T20:51:51.824Z,10.20
2019-04-04T20:56:55.355Z,9.47
2019-04-04T21:01:58.636Z,9.20
2019-04-04T21:07:01.918Z,8.23
2019-04-04T21:12:05.433Z,9.50
2019-04-04T21:17:08.723Z,9.70
2019-04-04T21:22:12.014Z,10.07
2019-04-04T21:27:15.316Z,12.07
2019-04-04T21:32:18.855Z,10.27
2019-04-04T21:37:22.382Z,10.83
2019-04-04T21:42:25.930Z,11.33
2019-04-04T21:47:29.227Z,9.90
2019-04-04T21:52:32.527Z,12.60
2019-04-04T21:57:35.810Z,13.40
2019-04-04T22:02:39.176Z,12.57
2019-04-04T22:07:42.484Z,11.33
2019-04-04T22:12:45.780Z,11.57
2019-04-04T22:17:49.119Z,12.47
2019-04-04T22:22:52.421Z,13.13
2019-04-04T22:27:55.715Z,15.03
2019-04-04T22:33:01.701Z,14.23
2019-04-04T22:38:04.081Z,15.07
2019-04-04T22:43:07.983Z,16.23
2019-04-04T22:48:11.518Z,15.37
2019-04-04T22:53:15.071Z,17.73
2019-04-04T22:58:28.174Z,15.63
2019-04-04T23:03:25.157Z,15.97
2019-04-04T23:08:28.493Z,17.23
2019-04-04T23:13:31.715Z,17.77
2019-04-04T23:18:34.999Z,16.70
2019-04-04T23:23:38.519Z,16.20
2019-04-04T23:28:41.870Z,16.37
2019-04-04T23:33:45.145Z,14.03
2019-04-04T23:38:48.667Z,14.93
2019-04-04T23:43:51.949Z,18.03
2019-04-04T23:48:55.484Z,15.30
2019-04-04T23:53:58.759Z,16.27
2019-04-04T23:59:02.288Z,13.20
